Pacific Dawn — WDA7844 — position and weather

sailwx.info

Track history (hours):
 
Tides and Currents Weather Stations Pressure Air Temp Water Temp Dewpoint Dewpoint Depression Visibility Wind Speed Wind Dir Waves Ship Positions

Pacific Dawn

Owner: Pacific Dawn, L.L.C., Gretna, LA. More information available from US FCC via Universal Licensing System and Coast Guard Vessel Documentation Center.

Last reported at 2017-Oct-08 11:08 UTC. Time now 2017-Oct-17 22:31 UTC.
Position N 25°23' W 080°03'.
Warning: this ship's position is 9 days out of date.

Length 30 m; draft 4.5 m.

Type: Towing. MMSI: 366847780.

Date/timePositionNaut miles runAvg speedWind from/ knotsBaromVisibWave heightAir tempDewpointWater temp
2017-Oct-08 11:08N 25°23' W 080°03'1 6.5
2017-Oct-08 11:00N 25°24' W 080°03'3 6.5
2017-Oct-08 10:30N 25°27' W 080°03'3 6.2
2017-Oct-08 10:00N 25°30' W 080°03'3 6.3
2017-Oct-08 09:30N 25°33' W 080°03'3 6.4
2017-Oct-08 09:00N 25°36' W 080°03'3 6.3
2017-Oct-08 08:30N 25°39' W 080°03'3 6.5
2017-Oct-08 08:00N 25°43' W 080°04'3 6.7
2017-Oct-08 07:30N 25°46' W 080°04'3 6.8
2017-Oct-08 07:00N 25°49' W 080°04'3 6.8
2017-Oct-08 06:30N 25°53' W 080°03'3 6.6
2017-Oct-08 06:00N 25°56' W 080°03'3 6.5
2017-Oct-08 05:30N 25°59' W 080°03'3 6.6
2017-Oct-08 05:00N 26°03' W 080°03'3 6.6
2017-Oct-08 04:30N 26°06' W 080°03'3 6.5
2017-Oct-08 04:00N 26°09' W 080°03'3 6.5
2017-Oct-08 03:30N 26°12' W 080°02'3 6.6
2017-Oct-08 02:59N 26°16' W 080°02'3 6.8
2017-Oct-08 02:30N 26°19' W 080°02'31 6.1
2017-Oct-07 21:25N 26°50' W 079°59'2 5.3
2017-Oct-07 20:59N 26°52' W 079°59'3 5.4
2017-Oct-07 20:30N 26°55' W 079°60'3 5.7
2017-Oct-07 20:00N 26°58' W 079°60'3 6.1
2017-Oct-07 19:30N 27°01' W 080°00'  
2017-Oct-03 17:24N 36°52' W 075°53'4 9.0
2017-Oct-03 17:00N 36°55' W 075°56'4 8.3
2017-Oct-03 16:30N 36°57' W 076°00'4 8.9
2017-Oct-03 16:00N 36°58' W 076°05'12 0.7
2017-Oct-02 22:45N 36°50' W 076°17'0 0.0
2017-Oct-02 22:30N 36°50' W 076°17'0 0.0
2017-Oct-02 22:00N 36°50' W 076°17'0 0.0
2017-Oct-02 21:28N 36°50' W 076°17'0 0.3
2017-Oct-02 20:58N 36°50' W 076°17'0 0.1
2017-Oct-02 20:30N 36°50' W 076°17'0 0.9
2017-Oct-02 20:00N 36°50' W 076°16'0 0.1
2017-Oct-02 19:30N 36°50' W 076°16'0 1.0
2017-Oct-02 19:00N 36°50' W 076°17'0 0.9
2017-Oct-02 18:29N 36°50' W 076°16'0 0.0
2017-Oct-02 17:30N 36°50' W 076°16'0 0.0
2017-Oct-02 17:00N 36°50' W 076°16'0 0.0
2017-Oct-02 16:30N 36°50' W 076°16'0 0.0
2017-Oct-02 16:00N 36°50' W 076°16'0 0.0
2017-Oct-02 15:30N 36°50' W 076°16'0 0.0
2017-Oct-02 14:57N 36°50' W 076°16'0 0.0
2017-Oct-02 14:23N 36°50' W 076°16'0 0.0
2017-Oct-02 14:00N 36°50' W 076°16'0 0.0
2017-Oct-02 13:30N 36°50' W 076°16'0 0.0
2017-Oct-02 13:00N 36°50' W 076°16'0 0.0
2017-Oct-02 12:30N 36°50' W 076°16'0 0.0
2017-Oct-02 12:00N 36°50' W 076°16'0 0.0
2017-Oct-02 11:30N 36°50' W 076°16'0 0.0
2017-Oct-02 11:00N 36°50' W 076°16'0 0.0
2017-Oct-02 10:30N 36°50' W 076°16'0 0.0
2017-Oct-02 10:00N 36°50' W 076°16'0 0.0
2017-Oct-02 09:30N 36°50' W 076°16'0 0.0
2017-Oct-02 09:00N 36°50' W 076°16'0 0.0
2017-Oct-02 08:30N 36°50' W 076°16'0 0.0
2017-Oct-02 08:00N 36°50' W 076°16'0 0.0
2017-Oct-02 07:30N 36°50' W 076°16'0 0.0
2017-Oct-02 07:00N 36°50' W 076°16'0 0.0
2017-Oct-02 06:30N 36°50' W 076°16'0 0.0
2017-Oct-02 06:00N 36°50' W 076°16'0 0.0
2017-Oct-02 05:30N 36°50' W 076°16'0 0.0
2017-Oct-02 05:00N 36°50' W 076°16'0 0.0
2017-Oct-02 04:30N 36°50' W 076°16'0 0.0
2017-Oct-02 04:00N 36°50' W 076°16'0 0.0
2017-Oct-02 03:30N 36°50' W 076°16'0 0.0
2017-Oct-02 03:00N 36°50' W 076°16'0 0.0
2017-Oct-02 02:30N 36°50' W 076°16'0 0.0
2017-Oct-02 02:00N 36°50' W 076°16'0 0.0
2017-Oct-02 01:30N 36°50' W 076°16'0 0.0
2017-Oct-02 01:00N 36°50' W 076°16'0 0.8
2017-Oct-02 00:30N 36°50' W 076°17'1 1.4
2017-Oct-02 00:00N 36°51' W 076°18'1 2.9
2017-Oct-01 23:29N 36°52' W 076°19'12 3.3
2017-Oct-01 19:45N 36°58' W 076°06'2 8.0
2017-Oct-01 19:30N 36°58' W 076°04'  
2017-Sep-28 14:23N 31°50' W 079°46'2 6.2
2017-Sep-28 13:59N 31°48' W 079°48'3 6.1
2017-Sep-28 13:30N 31°45' W 079°50'3 6.1
2017-Sep-28 13:00N 31°43' W 079°52'3 6.2
2017-Sep-28 12:30N 31°41' W 079°55'3 6.2
2017-Sep-28 12:00N 31°39' W 079°58'3 6.3
2017-Sep-28 11:30N 31°36' W 079°60'  
Track history (hours):
 
Tides and Currents Weather Stations Pressure Air Temp Water Temp Dewpoint Dewpoint Depression Visibility Wind Speed Wind Dir Waves Ship Positions

Pacific Dawn

Owner: Pacific Dawn, L.L.C., Gretna, LA. More information available from US FCC via Universal Licensing System and Coast Guard Vessel Documentation Center.

Last reported at 2017-Oct-08 11:08 UTC. Time now 2017-Oct-17 22:31 UTC.
Position N 25°23' W 080°03'.
Warning: this ship's position is 9 days out of date.

Length 30 m; draft 4.5 m.

Type: Towing. MMSI: 366847780.

Date/timePositionNaut miles runAvg speedWind from/ knotsBaromVisibWave heightAir tempDewpointWater temp
2017-Oct-08 11:08N 25°23' W 080°03'1 6.5
2017-Oct-08 11:00N 25°24' W 080°03'3 6.5
2017-Oct-08 10:30N 25°27' W 080°03'3 6.2
2017-Oct-08 10:00N 25°30' W 080°03'3 6.3
2017-Oct-08 09:30N 25°33' W 080°03'3 6.4
2017-Oct-08 09:00N 25°36' W 080°03'3 6.3
2017-Oct-08 08:30N 25°39' W 080°03'3 6.5
2017-Oct-08 08:00N 25°43' W 080°04'3 6.7
2017-Oct-08 07:30N 25°46' W 080°04'3 6.8
2017-Oct-08 07:00N 25°49' W 080°04'3 6.8
2017-Oct-08 06:30N 25°53' W 080°03'3 6.6
2017-Oct-08 06:00N 25°56' W 080°03'3 6.5
2017-Oct-08 05:30N 25°59' W 080°03'3 6.6
2017-Oct-08 05:00N 26°03' W 080°03'3 6.6
2017-Oct-08 04:30N 26°06' W 080°03'3 6.5
2017-Oct-08 04:00N 26°09' W 080°03'3 6.5
2017-Oct-08 03:30N 26°12' W 080°02'3 6.6
2017-Oct-08 02:59N 26°16' W 080°02'3 6.8
2017-Oct-08 02:30N 26°19' W 080°02'31 6.1
2017-Oct-07 21:25N 26°50' W 079°59'2 5.3
2017-Oct-07 20:59N 26°52' W 079°59'3 5.4
2017-Oct-07 20:30N 26°55' W 079°60'3 5.7
2017-Oct-07 20:00N 26°58' W 079°60'3 6.1
2017-Oct-07 19:30N 27°01' W 080°00'  
2017-Oct-03 17:24N 36°52' W 075°53'4 9.0
2017-Oct-03 17:00N 36°55' W 075°56'4 8.3
2017-Oct-03 16:30N 36°57' W 076°00'4 8.9
2017-Oct-03 16:00N 36°58' W 076°05'12 0.7
2017-Oct-02 22:45N 36°50' W 076°17'0 0.0
2017-Oct-02 22:30N 36°50' W 076°17'0 0.0
2017-Oct-02 22:00N 36°50' W 076°17'0 0.0
2017-Oct-02 21:28N 36°50' W 076°17'0 0.3
2017-Oct-02 20:58N 36°50' W 076°17'0 0.1
2017-Oct-02 20:30N 36°50' W 076°17'0 0.9
2017-Oct-02 20:00N 36°50' W 076°16'0 0.1
2017-Oct-02 19:30N 36°50' W 076°16'0 1.0
2017-Oct-02 19:00N 36°50' W 076°17'0 0.9
2017-Oct-02 18:29N 36°50' W 076°16'0 0.0
2017-Oct-02 17:30N 36°50' W 076°16'0 0.0
2017-Oct-02 17:00N 36°50' W 076°16'0 0.0
2017-Oct-02 16:30N 36°50' W 076°16'0 0.0
2017-Oct-02 16:00N 36°50' W 076°16'0 0.0
2017-Oct-02 15:30N 36°50' W 076°16'0 0.0
2017-Oct-02 14:57N 36°50' W 076°16'0 0.0
2017-Oct-02 14:23N 36°50' W 076°16'0 0.0
2017-Oct-02 14:00N 36°50' W 076°16'0 0.0
2017-Oct-02 13:30N 36°50' W 076°16'0 0.0
2017-Oct-02 13:00N 36°50' W 076°16'0 0.0
2017-Oct-02 12:30N 36°50' W 076°16'0 0.0
2017-Oct-02 12:00N 36°50' W 076°16'0 0.0
2017-Oct-02 11:30N 36°50' W 076°16'0 0.0
2017-Oct-02 11:00N 36°50' W 076°16'0 0.0
2017-Oct-02 10:30N 36°50' W 076°16'0 0.0
2017-Oct-02 10:00N 36°50' W 076°16'0 0.0
2017-Oct-02 09:30N 36°50' W 076°16'0 0.0
2017-Oct-02 09:00N 36°50' W 076°16'0 0.0
2017-Oct-02 08:30N 36°50' W 076°16'0 0.0
2017-Oct-02 08:00N 36°50' W 076°16'0 0.0
2017-Oct-02 07:30N 36°50' W 076°16'0 0.0
2017-Oct-02 07:00N 36°50' W 076°16'0 0.0
2017-Oct-02 06:30N 36°50' W 076°16'0 0.0
2017-Oct-02 06:00N 36°50' W 076°16'0 0.0
2017-Oct-02 05:30N 36°50' W 076°16'0 0.0
2017-Oct-02 05:00N 36°50' W 076°16'0 0.0
2017-Oct-02 04:30N 36°50' W 076°16'0 0.0
2017-Oct-02 04:00N 36°50' W 076°16'0 0.0
2017-Oct-02 03:30N 36°50' W 076°16'0 0.0
2017-Oct-02 03:00N 36°50' W 076°16'0 0.0
2017-Oct-02 02:30N 36°50' W 076°16'0 0.0
2017-Oct-02 02:00N 36°50' W 076°16'0 0.0
2017-Oct-02 01:30N 36°50' W 076°16'0 0.0
2017-Oct-02 01:00N 36°50' W 076°16'0 0.8
2017-Oct-02 00:30N 36°50' W 076°17'1 1.4
2017-Oct-02 00:00N 36°51' W 076°18'1 2.9
2017-Oct-01 23:29N 36°52' W 076°19'12 3.3
2017-Oct-01 19:45N 36°58' W 076°06'2 8.0
2017-Oct-01 19:30N 36°58' W 076°04'  
2017-Sep-28 14:23N 31°50' W 079°46'2 6.2
2017-Sep-28 13:59N 31°48' W 079°48'3 6.1
2017-Sep-28 13:30N 31°45' W 079°50'3 6.1
2017-Sep-28 13:00N 31°43' W 079°52'3 6.2
2017-Sep-28 12:30N 31°41' W 079°55'3 6.2
2017-Sep-28 12:00N 31°39' W 079°58'3 6.3
2017-Sep-28 11:30N 31°36' W 079°60'  

Dump ship's entire track history